To NAV CANADA Home Page Login to a new session Search on AWWS site Feedback and Comments Disclaimer Vers la page française équivalente Tips FAQ What's new on the site To the Forecasts and Observations / NOTAM section To "File a Flight Plan" website Publications and other links Update of the User's profile FIC Telephone Numbers My Weather Data Folder Route Weather Data Regional Weather Data Local Weather Data To the Forecasts and Observations / NOTAM section
Request Generated 03/28/2017 at 02:21:52 UTC . Weather information available at that time is displayed.

METAR/TAF

SARNIA (CHRIS HADFIELD)/ON    (show WxCam)

METAR CYZR 280200Z AUTO 33005KT 5/8SM R33/4000V5500FT/ BR VV002 04/03
A2994 RMK SLP143=
SPECI CYZR 280122Z AUTO 02006KT 1 3/4SM BR BKN003 OVC033 06/06 A2992
RMK SLP138=
SPECI CYZR 280115Z AUTO 02007KT 2 1/2SM BR BKN003 OVC033 07/06 A2992
RMK SLP137=
SPECI CYZR 280114Z AUTO 02007KT 3SM BR BKN003 OVC033 07/06 A2992 RMK
SLP137=
METAR CYZR 280100Z AUTO 02008KT 5SM BR FEW003 OVC031 07/06 A2991 RMK
SLP134=
SPECI CYZR 280033Z AUTO 02008KT 5SM BR SCT003 OVC033 07/06 A2991 RMK
SLP133=
METAR CYZR 280000Z AUTO 04006KT 9SM OVC035 09/08 A2989 RMK SLP126=

*** REMARK        : Forecast period has ended; this was the last TAF issued
*** REMARQUE : La période de prévision est échue; ceci était le dernier TAF qui a été émis
TAF AMD CYZR 280122Z 2801/2802 02007KT 1SM BR BKN003 OVC030 TEMPO
2801/2802 3SM BR SCT003 OVC030
RMK FCST BASED ON AUTO OBS. NXT FCST WILL BE ISSUED AT 281145Z=
Your time UTC time
Weather data provided by Environment Canada and NAV CANADA